Cascade, MT

2:08 AM MDT on September 18, 2014 (GMT -0600)
Trout Montana Fly Shop, Cascade, MT | Change Station
CLOSE
Current Station
Personal Weather Station
Location: Cascade, MT
Elevation: 3376 ft
Nearby Weather Stations

Elev 3376 ft 47.27 °N, 111.70 °W | Updated 13 minutes ago

Partly Cloudy
Partly Cloudy
73.3 °F
Feels Like 77 °F
N
2.0
Wind Variable Wind from ESE
Gusts 6.0 mph

Today
High -- | Low -- °F
--% Chance of Precip.
Yesterday
High -- | Low -- °F
Precip. -- in
7:08 AM 7:32 PM
Waning Crescent, 29% visible
Pressure 29.66 in
Visibility 10.0 miles
Clouds Clear
Heat Index 77 °F
Dew Point 46 °F
Humidity 38%
Rainfall 0.00 in
Snow Depth Not available.
UV 0 out of 12
Pollen 6.90 out of 12
Air Quality Not available.
Flu Activity Not available.
METAR KGTF 180753Z 18008KT 10SM CLR 19/06 A2976 RMK AO2 SLP042 T01890056 $

More Conditions Fewer Conditions

Pressure 29.66 in
Visibility 10.0 miles
Clouds Clear
Heat Index 77 °F
Dew Point 46 °F
Humidity 38%
Rainfall 0.00 in
Snow Depth Not available.
UV 0 out of 12
Pollen 6.90 out of 12
Air Quality Not available.
Flu Activity Not available.
METAR KGTF 180753Z 18008KT 10SM CLR 19/06 A2976 RMK AO2 SLP042 T01890056 $

More Conditions Fewer Conditions

10-Day Weather Forecast

Almanac

Astronomy

Sep. 18, 2014 Rise Set
Actual Time 7:08 AM MDT 7:32 PM MDT
Civil Twilight 6:37 AM MDT 8:03 PM MDT
Nautical Twilight 6:01 AM MDT 8:39 PM MDT
Astronomical Twilight 5:23 AM MDT 9:16 PM MDT
Moon 1:48 AM MDT 4:40 PM MDT
Length of Visible Light 13h 25m
Length of Day
12h 24m
Tomorrow will be 3m 22s shorter.
Waning Crescent, 29% of the Moon is Illuminated
Today
Waning Crescent
Sep 24
New
Oct 1
First Quarter
Oct 8
Full
Oct 15
Last Quarter

Today's Extremes

State Highs State Lows

Community

WunderPhotos

Upload Photos

1,754,306 photos uploaded!

Nearby

Snow Depth

Station Depth Elevation
Northeast Entrance 0 in 7350 ft
Monument Peak 0 in 8850 ft
Kraft Creek 0 in 4750 ft
Nez Perce Camp 0 in 5650 ft
Short Creek 0 in 7000 ft

Earthquake Activity

City Distance Mag. Time & Date
No recent earthquake activity has been reported nearby.
Minimum magnitude displayed is 2.5.

Coastal Water Temperatures

Place Temperature
No Stations Reporting

Nearby Weather Stations